createdAt,value
2023-05-14T00:02:54.943Z,100602.53
2023-05-14T00:05:57.264Z,100610.09
2023-05-14T00:09:02.242Z,100601.72
2023-05-14T00:12:04.706Z,100595.00
2023-05-14T00:15:07.624Z,100588.81
2023-05-14T00:18:12.215Z,100602.59
2023-05-14T00:21:14.576Z,100589.38
2023-05-14T00:24:16.852Z,100592.22
2023-05-14T00:27:19.148Z,100585.38
2023-05-14T00:30:21.658Z,100584.41
2023-05-14T00:33:24.182Z,100579.28
2023-05-14T00:36:26.407Z,100581.53
2023-05-14T00:39:28.706Z,100577.22
2023-05-14T00:42:31.002Z,100578.19
2023-05-14T00:45:33.279Z,100565.34
2023-05-14T00:48:35.981Z,100581.69
2023-05-14T00:51:38.839Z,100577.47
2023-05-14T00:54:41.293Z,100573.50
2023-05-14T00:57:44.079Z,100572.72
2023-05-14T01:00:46.363Z,100570.22
2023-05-14T01:03:49.131Z,100564.88
2023-05-14T01:07:31.489Z,100562.34
2023-05-14T01:11:03.620Z,100560.53
2023-05-14T01:14:12.195Z,100557.19
2023-05-14T01:17:19.993Z,100540.09
2023-05-14T01:20:22.816Z,100536.97
2023-05-14T01:23:25.208Z,100542.09
2023-05-14T01:26:28.200Z,100539.19
2023-05-14T01:29:32.374Z,100533.03
2023-05-14T01:32:35.153Z,100536.06
2023-05-14T01:35:37.612Z,100533.34
2023-05-14T01:38:40.106Z,100532.06
2023-05-14T01:41:42.852Z,100531.63
2023-05-14T01:44:45.260Z,100515.91
2023-05-14T01:47:47.639Z,100515.09
2023-05-14T01:50:49.972Z,100501.16
2023-05-14T01:53:52.392Z,100496.63
2023-05-14T01:56:55.931Z,100487.53
2023-05-14T01:59:58.736Z,100492.31
2023-05-14T02:03:01.095Z,100486.72
2023-05-14T02:06:03.520Z,100471.47
2023-05-14T02:09:06.060Z,100474.19
2023-05-14T02:12:09.298Z,100474.19
2023-05-14T02:15:11.930Z,100467.69
2023-05-14T02:18:14.454Z,100460.66
2023-05-14T02:21:16.684Z,100464.34
2023-05-14T02:24:19.178Z,100467.72
2023-05-14T02:27:21.937Z,100473.16
2023-05-14T02:30:24.430Z,100484.47
2023-05-14T02:33:27.403Z,100478.16
2023-05-14T02:36:30.054Z,100468.75
2023-05-14T02:39:32.395Z,100473.66
2023-05-14T02:42:35.380Z,100473.47
2023-05-14T02:45:37.787Z,100481.00
2023-05-14T02:48:40.341Z,100472.97
2023-05-14T02:51:42.636Z,100469.25
2023-05-14T02:54:44.905Z,100474.13
2023-05-14T02:57:47.204Z,100467.50
2023-05-14T03:00:49.501Z,100469.47
2023-05-14T03:03:52.655Z,100465.53
2023-05-14T03:06:55.099Z,100457.88
2023-05-14T03:09:57.383Z,100474.22
2023-05-14T03:12:59.726Z,100472.34
2023-05-14T03:16:01.997Z,100468.56
2023-05-14T03:19:04.409Z,100470.25
2023-05-14T03:22:06.786Z,100466.53
2023-05-14T03:25:09.319Z,100471.78
2023-05-14T03:28:11.613Z,100476.41
2023-05-14T03:31:14.133Z,100468.75
2023-05-14T03:34:16.710Z,100471.09
2023-05-14T03:37:18.975Z,100473.56
2023-05-14T03:40:21.755Z,100470.31
2023-05-14T03:43:24.196Z,100460.47
2023-05-14T03:46:26.389Z,100472.66
2023-05-14T03:49:29.115Z,100458.81
2023-05-14T03:52:31.991Z,100457.41
2023-05-14T03:55:34.325Z,100449.50
2023-05-14T03:58:37.147Z,100442.16
2023-05-14T04:01:39.437Z,100439.16
2023-05-14T04:04:42.390Z,100450.50
2023-05-14T04:07:45.924Z,100440.84
2023-05-14T04:10:48.423Z,100449.69
2023-05-14T04:13:50.738Z,100458.50
2023-05-14T04:16:53.073Z,100459.34
2023-05-14T04:19:55.357Z,100467.47
2023-05-14T04:22:57.604Z,100452.53
2023-05-14T04:25:59.843Z,100446.47
2023-05-14T04:29:03.481Z,100453.69
2023-05-14T04:32:06.756Z,100453.56
2023-05-14T04:35:10.347Z,100446.00
2023-05-14T04:38:14.226Z,100444.50
2023-05-14T04:41:16.502Z,100455.22
2023-05-14T04:44:18.717Z,100439.50
2023-05-14T04:47:21.236Z,100450.88
2023-05-14T04:50:23.648Z,100448.31
2023-05-14T04:53:26.107Z,100439.28
2023-05-14T04:56:28.425Z,100436.50
2023-05-14T04:59:31.466Z,100447.19
2023-05-14T05:02:34.854Z,100437.28
2023-05-14T05:05:37.248Z,100431.47
2023-05-14T05:08:39.962Z,100440.78
2023-05-14T05:11:42.353Z,100428.00
2023-05-14T05:14:44.649Z,100427.78
2023-05-14T05:17:47.014Z,100431.59
2023-05-14T05:20:49.357Z,100435.78
2023-05-14T05:23:51.774Z,100433.81
2023-05-14T05:26:55.809Z,100439.28
2023-05-14T05:29:58.099Z,100419.72
2023-05-14T05:33:01.489Z,100426.34
2023-05-14T05:36:04.132Z,100428.47
2023-05-14T05:39:06.553Z,100430.53
2023-05-14T05:42:08.854Z,100436.16
2023-05-14T05:45:11.232Z,100428.59
2023-05-14T05:48:13.628Z,100428.94
2023-05-14T05:51:15.948Z,100423.72
2023-05-14T05:54:18.188Z,100413.84
2023-05-14T05:57:23.641Z,100423.97
2023-05-14T06:00:27.537Z,100432.81
2023-05-14T06:03:29.914Z,100442.59
2023-05-14T06:06:33.080Z,100436.06
2023-05-14T06:09:35.536Z,100433.28
2023-05-14T06:12:37.798Z,100435.00
2023-05-14T06:15:40.152Z,100441.63
2023-05-14T06:18:42.402Z,100438.84
2023-05-14T06:21:44.699Z,100440.94
2023-05-14T06:24:47.829Z,100442.22
2023-05-14T06:27:50.128Z,100438.16
2023-05-14T06:30:54.088Z,100428.59
2023-05-14T06:33:57.999Z,100451.53
2023-05-14T06:37:02.820Z,100445.72
2023-05-14T06:40:05.757Z,100441.41
2023-05-14T06:43:08.033Z,100435.50
2023-05-14T06:46:10.717Z,100430.47
2023-05-14T06:49:13.048Z,100433.16
2023-05-14T06:52:15.484Z,100422.94
2023-05-14T06:55:17.870Z,100425.75
2023-05-14T06:58:20.169Z,100422.47
2023-05-14T07:01:22.608Z,100416.78
2023-05-14T07:04:24.920Z,100412.75
2023-05-14T07:07:27.185Z,100410.19
2023-05-14T07:10:30.964Z,100408.56
2023-05-14T07:13:33.440Z,100406.34
2023-05-14T07:16:36.096Z,100400.19
2023-05-14T07:19:38.418Z,100397.94
2023-05-14T07:22:40.930Z,100386.22
2023-05-14T07:25:43.227Z,100396.53
2023-05-14T07:28:45.521Z,100396.06
2023-05-14T07:31:47.925Z,100392.78
2023-05-14T07:34:50.264Z,100382.66
2023-05-14T07:37:52.850Z,100392.28
2023-05-14T07:40:55.224Z,100374.00
2023-05-14T07:43:57.492Z,100378.75
2023-05-14T07:46:59.789Z,100373.28
2023-05-14T07:50:02.077Z,100367.03
2023-05-14T07:53:04.311Z,100373.06
2023-05-14T07:56:07.096Z,100373.94
2023-05-14T07:59:09.362Z,100369.13
2023-05-14T08:02:12.970Z,100359.13
2023-05-14T08:05:15.970Z,100366.47
2023-05-14T08:08:18.429Z,100372.47
2023-05-14T08:11:21.528Z,100361.25
2023-05-14T08:14:23.808Z,100351.72
2023-05-14T08:17:26.251Z,100351.91
2023-05-14T08:20:28.843Z,100344.34
2023-05-14T08:23:31.214Z,100346.19
2023-05-14T08:26:33.491Z,100343.97
2023-05-14T08:29:35.973Z,100344.31
2023-05-14T08:32:38.750Z,100343.91
2023-05-14T08:35:41.158Z,100319.22
2023-05-14T08:38:44.253Z,100319.22
2023-05-14T08:41:46.825Z,100324.09
2023-05-14T08:44:50.300Z,100326.53
2023-05-14T08:47:53.167Z,100306.47
2023-05-14T08:50:55.555Z,100307.63
2023-05-14T08:53:59.313Z,100309.81
2023-05-14T08:57:03.483Z,100296.16
2023-05-14T09:00:11.878Z,100298.59
2023-05-14T09:03:17.660Z,100302.88
2023-05-14T09:06:21.595Z,100304.03
2023-05-14T09:09:26.291Z,100294.69
2023-05-14T09:12:28.806Z,100304.19
2023-05-14T09:15:31.709Z,100307.75
2023-05-14T09:18:36.262Z,100288.38
2023-05-14T09:21:38.999Z,100305.09
2023-05-14T09:24:41.931Z,100290.28
2023-05-14T09:27:50.201Z,100298.59
2023-05-14T09:30:53.664Z,100294.22
2023-05-14T09:33:56.239Z,100296.81
2023-05-14T09:37:03.501Z,100297.03
2023-05-14T09:40:09.531Z,100285.44
2023-05-14T09:43:12.218Z,100277.13
2023-05-14T09:46:14.663Z,100280.34
2023-05-14T09:49:17.164Z,100278.16
2023-05-14T09:52:19.947Z,100263.59
2023-05-14T09:55:22.518Z,100268.41
2023-05-14T09:58:24.820Z,100271.09
2023-05-14T10:01:29.024Z,100260.16
2023-05-14T10:04:33.077Z,100262.56
2023-05-14T10:07:45.206Z,100248.69
2023-05-14T10:10:48.676Z,100241.94
2023-05-14T10:14:18.304Z,100231.94
2023-05-14T10:17:21.810Z,100205.44
2023-05-14T10:20:25.409Z,100182.81
2023-05-14T10:23:27.970Z,100181.91
2023-05-14T10:26:31.052Z,100172.56
2023-05-14T10:29:38.210Z,100149.34
2023-05-14T10:32:41.919Z,100146.75
2023-05-14T10:36:04.767Z,100182.97
2023-05-14T10:39:09.075Z,100194.63
2023-05-14T10:42:16.824Z,100190.16
2023-05-14T10:45:19.173Z,100192.63
2023-05-14T10:48:21.883Z,100206.09
2023-05-14T10:51:24.277Z,100194.09
2023-05-14T10:54:28.659Z,100196.91
2023-05-14T10:57:32.071Z,100182.63
2023-05-14T11:00:34.596Z,100171.34
2023-05-14T11:03:42.293Z,100158.47
2023-05-14T11:06:48.576Z,100170.69
2023-05-14T11:09:51.368Z,100175.28
2023-05-14T11:12:53.663Z,100160.16
2023-05-14T11:15:56.142Z,100158.50
2023-05-14T11:19:03.476Z,100178.59
2023-05-14T11:22:06.653Z,100152.09
2023-05-14T11:25:10.062Z,100165.13
2023-05-14T11:28:12.387Z,100155.41
2023-05-14T11:31:14.671Z,100159.63
2023-05-14T11:34:16.954Z,100154.41
2023-05-14T11:37:19.331Z,100157.00
2023-05-14T11:40:21.785Z,100148.41
2023-05-14T11:43:24.526Z,100148.53
2023-05-14T11:46:27.691Z,100157.34
2023-05-14T11:49:30.057Z,100147.50
2023-05-14T11:52:37.907Z,100158.94
2023-05-14T11:55:40.416Z,100143.34
2023-05-14T11:58:48.657Z,100142.31
2023-05-14T12:01:52.454Z,100136.91
2023-05-14T12:04:54.810Z,100120.50
2023-05-14T12:07:57.200Z,100117.94
2023-05-14T12:11:00.700Z,100119.03
2023-05-14T12:14:11.296Z,100109.31
2023-05-14T12:17:16.656Z,100119.47
2023-05-14T12:20:19.133Z,100105.91
2023-05-14T12:23:31.910Z,100099.84
2023-05-14T12:26:34.296Z,100081.97
2023-05-14T12:29:38.968Z,100086.19
2023-05-14T12:32:41.438Z,100092.84
2023-05-14T12:35:43.875Z,100092.34
2023-05-14T12:38:46.168Z,100084.72
2023-05-14T12:41:48.589Z,100070.41
2023-05-14T12:44:51.034Z,100064.97
2023-05-14T12:47:53.450Z,100071.06
2023-05-14T12:51:01.515Z,100063.91
2023-05-14T12:54:04.023Z,100075.44
2023-05-14T12:57:06.575Z,100067.47
2023-05-14T13:00:21.264Z,100051.81
2023-05-14T13:03:23.814Z,100056.47
2023-05-14T13:06:26.256Z,100060.25
2023-05-14T13:09:28.676Z,100042.16
2023-05-14T13:12:31.012Z,100034.84
2023-05-14T13:15:33.793Z,100020.03
2023-05-14T13:18:36.212Z,100031.56
2023-05-14T13:21:40.296Z,100042.59
2023-05-14T13:24:42.827Z,100008.78
2023-05-14T13:27:45.161Z,100024.00
2023-05-14T13:31:07.838Z,100011.53
2023-05-14T13:34:10.386Z,100015.50
2023-05-14T13:37:14.734Z,99984.47
2023-05-14T13:40:25.199Z,99986.19
2023-05-14T13:43:28.926Z,100002.94
2023-05-14T13:46:31.880Z,99992.22
2023-05-14T13:49:34.247Z,99997.09
2023-05-14T13:52:37.831Z,99982.66
2023-05-14T13:55:40.204Z,99986.88
2023-05-14T13:58:42.645Z,99991.41
2023-05-14T14:01:44.971Z,99978.66
2023-05-14T14:04:49.631Z,99967.28
2023-05-14T14:08:04.357Z,99974.53
2023-05-14T14:11:17.732Z,99978.00
2023-05-14T14:14:20.213Z,99964.72
2023-05-14T14:17:25.495Z,99964.56
2023-05-14T14:20:28.895Z,99955.16
2023-05-14T14:23:31.186Z,99972.53
2023-05-14T14:26:33.498Z,99973.34
2023-05-14T14:29:36.891Z,99971.06
2023-05-14T14:32:39.249Z,99968.38
2023-05-14T14:35:41.729Z,99976.41
2023-05-14T14:38:44.173Z,99969.34
2023-05-14T14:41:47.651Z,99967.34
2023-05-14T14:44:49.980Z,99970.75
2023-05-14T14:47:52.400Z,99955.03
2023-05-14T14:50:55.946Z,99959.25
2023-05-14T14:53:58.225Z,99953.94
2023-05-14T14:57:00.662Z,99937.84
2023-05-14T15:00:03.710Z,99947.50
2023-05-14T15:03:06.772Z,99931.13
2023-05-14T15:06:09.174Z,99922.59
2023-05-14T15:09:11.464Z,99913.47
2023-05-14T15:12:14.322Z,99900.16
2023-05-14T15:15:16.609Z,99916.03
2023-05-14T15:18:18.999Z,99911.13
2023-05-14T15:21:21.531Z,99904.69
2023-05-14T15:24:25.185Z,99906.56
2023-05-14T15:27:28.248Z,99876.47
2023-05-14T15:30:30.652Z,99902.50
2023-05-14T15:33:34.113Z,99883.75
2023-05-14T15:36:36.572Z,99896.59
2023-05-14T15:39:38.777Z,99892.78
2023-05-14T15:42:43.628Z,99891.69
2023-05-14T15:45:49.271Z,99890.44
2023-05-14T15:48:51.585Z,99899.44
2023-05-14T15:51:54.646Z,99882.78
2023-05-14T15:54:57.584Z,99876.69
2023-05-14T15:57:59.886Z,99866.38
2023-05-14T16:01:02.852Z,99857.56
2023-05-14T16:04:05.317Z,99838.94
2023-05-14T16:07:12.250Z,99844.44
2023-05-14T16:10:14.590Z,99835.06
2023-05-14T16:13:16.928Z,99833.28
2023-05-14T16:16:20.832Z,99834.09
2023-05-14T16:19:23.481Z,99841.41
2023-05-14T16:22:25.777Z,99850.50
2023-05-14T16:25:30.710Z,99840.03
2023-05-14T16:28:33.049Z,99834.97
2023-05-14T16:31:35.486Z,99840.72
2023-05-14T16:34:37.786Z,99834.75
2023-05-14T16:37:40.089Z,99836.19
2023-05-14T16:40:42.904Z,99819.31
2023-05-14T16:43:45.516Z,99826.78
2023-05-14T16:46:48.291Z,99818.16
2023-05-14T16:49:50.573Z,99808.56
2023-05-14T16:52:53.016Z,99801.13
2023-05-14T16:55:55.262Z,99787.94
2023-05-14T16:59:00.894Z,99757.75
2023-05-14T17:02:03.926Z,99800.88
2023-05-14T17:05:07.967Z,99777.97
2023-05-14T17:08:10.455Z,99780.81
2023-05-14T17:11:12.949Z,99802.81
2023-05-14T17:14:15.353Z,99790.44
2023-05-14T17:17:17.729Z,99788.00
2023-05-14T17:20:20.300Z,99786.97
2023-05-14T17:23:22.574Z,99778.19
2023-05-14T17:26:26.404Z,99769.84
2023-05-14T17:29:28.676Z,99759.16
2023-05-14T17:32:31.450Z,99757.56
2023-05-14T17:35:36.449Z,99755.75
2023-05-14T17:38:39.184Z,99750.41
2023-05-14T17:41:42.171Z,99720.38
2023-05-14T17:44:45.337Z,99734.00
2023-05-14T17:47:49.795Z,99734.28
2023-05-14T17:50:52.263Z,99743.25
2023-05-14T17:53:54.562Z,99748.34
2023-05-14T17:56:56.901Z,99736.41
2023-05-14T17:59:59.363Z,99744.50
2023-05-14T18:03:01.662Z,99722.13
2023-05-14T18:06:04.620Z,99724.53
2023-05-14T18:09:06.947Z,99732.38
2023-05-14T18:12:09.225Z,99724.41
2023-05-14T18:15:11.558Z,99717.97
2023-05-14T18:18:17.203Z,99707.03
2023-05-14T18:21:19.491Z,99706.34
2023-05-14T18:24:22.374Z,99710.50
2023-05-14T18:27:24.748Z,99720.97
2023-05-14T18:30:27.133Z,99712.16
2023-05-14T18:33:29.648Z,99715.97
2023-05-14T18:36:32.081Z,99725.69
2023-05-14T18:39:34.370Z,99719.34
2023-05-14T18:42:36.678Z,99725.78
2023-05-14T18:45:42.645Z,99729.03
2023-05-14T18:48:45.044Z,99729.28
2023-05-14T18:51:47.336Z,99719.41
2023-05-14T18:54:50.908Z,99719.53
2023-05-14T18:57:53.227Z,99720.09
2023-05-14T19:00:57.905Z,99718.66
2023-05-14T19:04:01.283Z,99727.56
2023-05-14T19:07:05.045Z,99727.56
2023-05-14T19:10:08.028Z,99731.59
2023-05-14T19:13:10.346Z,99734.34
2023-05-14T19:16:13.254Z,99717.53
2023-05-14T19:19:15.770Z,99704.31
2023-05-14T19:22:19.533Z,99699.84
2023-05-14T19:25:21.905Z,99712.63
2023-05-14T19:28:24.345Z,99702.13
2023-05-14T19:31:27.153Z,99715.78
2023-05-14T19:34:29.438Z,99702.75
2023-05-14T19:37:32.017Z,99690.13
2023-05-14T19:40:34.297Z,99687.31
2023-05-14T19:43:36.558Z,99684.19
2023-05-14T19:46:38.914Z,99674.09
2023-05-14T19:49:41.382Z,99690.22
2023-05-14T19:52:43.716Z,99682.03
2023-05-14T19:55:46.025Z,99691.50
2023-05-14T19:58:48.408Z,99686.22
2023-05-14T20:01:50.809Z,99679.44
2023-05-14T20:04:55.649Z,99700.44
2023-05-14T20:07:58.019Z,99698.34
2023-05-14T20:11:03.322Z,99694.25
2023-05-14T20:14:05.820Z,99693.00
2023-05-14T20:17:08.150Z,99676.84
2023-05-14T20:20:11.931Z,99694.59
2023-05-14T20:23:14.200Z,99681.19
2023-05-14T20:26:16.507Z,99678.56
2023-05-14T20:29:18.828Z,99662.22
2023-05-14T20:32:24.928Z,99679.06
2023-05-14T20:35:27.631Z,99677.00
2023-05-14T20:38:31.319Z,99680.38
2023-05-14T20:41:33.628Z,99667.38
2023-05-14T20:44:35.963Z,99677.56
2023-05-14T20:47:38.376Z,99672.28
2023-05-14T20:50:40.674Z,99653.59
2023-05-14T20:53:43.004Z,99649.22
2023-05-14T20:56:45.691Z,99655.22
2023-05-14T20:59:49.030Z,99644.03
2023-05-14T21:02:51.579Z,99647.72
2023-05-14T21:05:56.093Z,99632.97
2023-05-14T21:08:58.426Z,99638.03
2023-05-14T21:12:00.732Z,99631.56
2023-05-14T21:15:03.220Z,99625.41
2023-05-14T21:18:05.581Z,99625.91
2023-05-14T21:21:07.900Z,99623.22
2023-05-14T21:24:10.176Z,99623.00
2023-05-14T21:27:12.504Z,99603.41
2023-05-14T21:30:15.104Z,99603.16
2023-05-14T21:33:17.640Z,99602.03
2023-05-14T21:36:21.189Z,99613.09
2023-05-14T21:39:23.469Z,99597.56
2023-05-14T21:42:25.784Z,99576.38
2023-05-14T21:45:28.396Z,99577.44
2023-05-14T21:48:31.104Z,99567.88
2023-05-14T21:51:33.756Z,99556.38
2023-05-14T21:54:36.002Z,99555.81
2023-05-14T21:57:38.271Z,99538.88
2023-05-14T22:00:41.229Z,99554.47
2023-05-14T22:03:43.573Z,99548.03
2023-05-14T22:06:46.102Z,99554.47
2023-05-14T22:09:48.936Z,99564.66
2023-05-14T22:12:52.379Z,99564.22
2023-05-14T22:16:01.411Z,99566.25
2023-05-14T22:19:12.005Z,99565.22
2023-05-14T22:22:14.329Z,99559.31
2023-05-14T22:25:16.654Z,99560.91
2023-05-14T22:28:20.044Z,99565.22
2023-05-14T22:31:22.348Z,99562.25
2023-05-14T22:34:24.647Z,99569.25
2023-05-14T22:37:26.909Z,99558.31
2023-05-14T22:40:29.184Z,99552.38
2023-05-14T22:43:31.523Z,99557.81
2023-05-14T22:46:33.918Z,99553.19
2023-05-14T22:49:36.296Z,99556.44
2023-05-14T22:52:39.352Z,99551.38
2023-05-14T22:55:41.646Z,99563.16
2023-05-14T22:58:44.437Z,99553.53
2023-05-14T23:01:46.758Z,99557.31
2023-05-14T23:04:49.162Z,99533.47
2023-05-14T23:07:52.845Z,99550.63
2023-05-14T23:10:55.132Z,99560.31
2023-05-14T23:13:57.421Z,99553.09
2023-05-14T23:16:59.793Z,99547.53
2023-05-14T23:20:02.130Z,99541.69
2023-05-14T23:23:05.086Z,99537.16
2023-05-14T23:26:07.442Z,99526.97
2023-05-14T23:29:09.803Z,99513.84
2023-05-14T23:32:12.184Z,99518.78
2023-05-14T23:35:14.534Z,99516.63
2023-05-14T23:38:16.840Z,99502.91
2023-05-14T23:41:19.180Z,99502.19
2023-05-14T23:44:21.635Z,99497.38
2023-05-14T23:47:23.971Z,99497.38
2023-05-14T23:50:26.330Z,99483.25
2023-05-14T23:53:28.564Z,99484.28
2023-05-14T23:56:31.053Z,99481.09
2023-05-14T23:59:33.357Z,99478.94
